Back to Top

Language: 

My Weather Underground Personal Weather Station Historical Data with Graphs...

Delerius Weather Station Historical Data
Daily Summary for April 7, 2017 Units:  English    Metric   Both
« Previous Day
Next Day »
Daily Weekly Monthly Yearly Custom
  High: Low: Average:
Temperature: 57.7 °F 38.1 °F 48.6 °F
Dew Point: 43.0 °F 34.9 °F 40.9 °F
Humidity: 92 % 55 % 76 %
Wind Speed: 8.0 mph 0.0 mph 3.8 mph
Wind Gust: 20.0 mph - -
Wind:- - WNW
Pressure: 30.37 in 30.26 in -
Precipitation: 0.00 in    
Historical Graphs
 
 
Tabular Data for April 7, 2017
Time Temperature Dew Point Pressure Wind Wind Speed Wind Gust Humidity Rainfall Rate (Hourly) solar Conditions
00:00 43.3 °F 39.4 °F 30.37 in WNW 2.0 mph 5.0 mph 86 % 0.00 in 0 W/m2
00:05 43.2 °F 39.6 °F 30.37 in WNW 2.0 mph 6.0 mph 87 % 0.00 in 0 W/m2
00:10 43.2 °F 39.6 °F 30.37 in WNW 3.0 mph 7.0 mph 87 % 0.00 in 0 W/m2
00:15 43.3 °F 40.0 °F 30.37 in WNW 3.0 mph 7.0 mph 88 % 0.00 in 0 W/m2
00:20 43.3 °F 40.0 °F 30.37 in WNW 3.0 mph 6.0 mph 88 % 0.00 in 0 W/m2
00:25 43.3 °F 40.0 °F 30.37 in WNW 4.0 mph 8.0 mph 88 % 0.00 in 0 W/m2
00:30 43.3 °F 40.0 °F 30.37 in WNW 3.0 mph 8.0 mph 88 % 0.00 in 0 W/m2
00:35 43.3 °F 40.0 °F 30.36 in WNW 3.0 mph 6.0 mph 88 % 0.00 in 0 W/m2
00:40 43.3 °F 40.0 °F 30.36 in WNW 4.0 mph 7.0 mph 88 % 0.00 in 0 W/m2
00:45 43.3 °F 40.0 °F 30.36 in WNW 4.0 mph 7.0 mph 88 % 0.00 in 0 W/m2
00:50 43.3 °F 40.0 °F 30.36 in WNW 4.0 mph 9.0 mph 88 % 0.00 in 0 W/m2
00:55 43.3 °F 40.3 °F 30.36 in WNW 4.0 mph 9.0 mph 89 % 0.00 in 0 W/m2
01:00 43.5 °F 40.5 °F 30.36 in WNW 4.0 mph 7.0 mph 89 % 0.00 in 0 W/m2
01:05 43.5 °F 40.5 °F 30.36 in WNW 4.0 mph 7.0 mph 89 % 0.00 in 0 W/m2
01:10 43.5 °F 40.5 °F 30.36 in WNW 4.0 mph 8.0 mph 89 % 0.00 in 0 W/m2
01:15 43.5 °F 40.5 °F 30.36 in WNW 4.0 mph 8.0 mph 89 % 0.00 in 0 W/m2
01:20 43.5 °F 40.5 °F 30.35 in WNW 3.0 mph 6.0 mph 89 % 0.00 in 0 W/m2
01:22 43.5 °F 40.5 °F 30.35 in WNW 3.0 mph 6.0 mph 89 % 0.00 in 0 W/m2
01:27 43.3 °F 40.3 °F 30.35 in WNW 3.0 mph 6.0 mph 89 % 0.00 in 0 W/m2
01:32 43.3 °F 40.3 °F 30.35 in WNW 3.0 mph 6.0 mph 89 % 0.00 in 0 W/m2
01:37 43.2 °F 40.1 °F 30.35 in WNW 2.0 mph 5.0 mph 89 % 0.00 in 0 W/m2
01:42 43.2 °F 40.1 °F 30.35 in WNW 2.0 mph 4.0 mph 89 % 0.00 in 0 W/m2
01:47 43.0 °F 40.0 °F 30.35 in WNW 2.0 mph 4.0 mph 89 % 0.00 in 0 W/m2
01:52 42.6 °F 39.6 °F 30.35 in WNW 2.0 mph 4.0 mph 89 % 0.00 in 0 W/m2
01:57 42.6 °F 39.6 °F 30.35 in WNW 1.0 mph 4.0 mph 89 % 0.00 in 0 W/m2
02:02 42.6 °F 39.9 °F 30.34 in WNW 1.0 mph 2.0 mph 90 % 0.00 in 0 W/m2
02:07 42.6 °F 39.9 °F 30.34 in Calm   2.0 mph 90 % 0.00 in 0 W/m2
02:12 42.6 °F 39.9 °F 30.34 in Calm   1.0 mph 90 % 0.00 in 0 W/m2
02:17 42.6 °F 40.2 °F 30.34 in Calm   1.0 mph 91 % 0.00 in 0 W/m2
02:22 42.4 °F 40.0 °F 30.34 in Calm   6.0 mph 91 % 0.00 in 0 W/m2
02:27 42.6 °F 40.2 °F 30.34 in West 1.0 mph 6.0 mph 91 % 0.00 in 0 W/m2
02:32 42.6 °F 40.2 °F 30.33 in West 2.0 mph 5.0 mph 91 % 0.00 in 0 W/m2
02:38 43.0 °F 40.5 °F 30.34 in West 3.0 mph 7.0 mph 91 % 0.00 in 0 W/m2
02:43 43.2 °F 41.0 °F 30.33 in WNW 4.0 mph 8.0 mph 92 % 0.00 in 0 W/m2
02:48 43.3 °F 41.2 °F 30.33 in WNW 5.0 mph 8.0 mph 92 % 0.00 in 0 W/m2
02:53 43.5 °F 41.4 °F 30.34 in WNW 5.0 mph 9.0 mph 92 % 0.00 in 0 W/m2
02:58 43.9 °F 41.7 °F 30.33 in WNW 5.0 mph 9.0 mph 92 % 0.00 in 0 W/m2
03:03 44.2 °F 42.1 °F 30.33 in WNW 4.0 mph 8.0 mph 92 % 0.00 in 0 W/m2
03:08 44.4 °F 42.2 °F 30.33 in West 3.0 mph 8.0 mph 92 % 0.00 in 0 W/m2
03:13 44.8 °F 42.3 °F 30.33 in West 3.0 mph 7.0 mph 91 % 0.00 in 0 W/m2
03:18 45.0 °F 42.5 °F 30.33 in West 3.0 mph 8.0 mph 91 % 0.00 in 0 W/m2
03:23 45.1 °F 42.4 °F 30.33 in West 3.0 mph 8.0 mph 90 % 0.00 in 0 W/m2
03:28 45.3 °F 42.6 °F 30.33 in West 2.0 mph 6.0 mph 90 % 0.00 in 0 W/m2
03:33 45.3 °F 42.6 °F 30.33 in West 2.0 mph 5.0 mph 90 % 0.00 in 0 W/m2
03:38 45.5 °F 42.7 °F 30.33 in West 2.0 mph 5.0 mph 90 % 0.00 in 0 W/m2
03:43 45.7 °F 42.9 °F 30.33 in West 2.0 mph 6.0 mph 90 % 0.00 in 0 W/m2
03:48 45.7 °F 42.6 °F 30.33 in West 3.0 mph 8.0 mph 89 % 0.00 in 0 W/m2
03:53 45.7 °F 42.6 °F 30.33 in West 3.0 mph 8.0 mph 89 % 0.00 in 0 W/m2
03:58 45.9 °F 42.8 °F 30.33 in West 2.0 mph 6.0 mph 89 % 0.00 in 0 W/m2
04:00 45.9 °F 42.8 °F 30.33 in WNW 2.0 mph 6.0 mph 89 % 0.00 in 0 W/m2
04:05 45.9 °F 42.8 °F 30.33 in West 3.0 mph 9.0 mph 89 % 0.00 in 0 W/m2
04:10 46.0 °F 43.0 °F 30.33 in West 4.0 mph 9.0 mph 89 % 0.00 in 0 W/m2
04:15 46.0 °F 42.7 °F 30.32 in West 4.0 mph 8.0 mph 88 % 0.00 in 0 W/m2
04:20 46.0 °F 42.7 °F 30.32 in West 4.0 mph 8.0 mph 88 % 0.00 in 0 W/m2
04:25 46.2 °F 42.9 °F 30.32 in West 4.0 mph 8.0 mph 88 % 0.00 in 0 W/m2
04:30 46.2 °F 42.9 °F 30.32 in West 4.0 mph 9.0 mph 88 % 0.00 in 0 W/m2
04:35 46.2 °F 42.9 °F 30.32 in WNW 5.0 mph 9.0 mph 88 % 0.00 in 0 W/m2
04:40 46.4 °F 42.7 °F 30.32 in WNW 5.0 mph 9.0 mph 87 % 0.00 in 0 W/m2
04:45 46.4 °F 42.7 °F 30.32 in WNW 4.0 mph 9.0 mph 87 % 0.00 in 0 W/m2
04:50 46.4 °F 42.7 °F 30.32 in WNW 3.0 mph 9.0 mph 87 % 0.00 in 0 W/m2
04:56 46.6 °F 42.9 °F 30.32 in WNW 4.0 mph 9.0 mph 87 % 0.00 in 0 W/m2
05:01 46.6 °F 42.9 °F 30.32 in WNW 4.0 mph 8.0 mph 87 % 0.00 in 0 W/m2
05:06 46.6 °F 42.9 °F 30.32 in WNW 3.0 mph 8.0 mph 87 % 0.00 in 0 W/m2
05:11 46.6 °F 42.9 °F 30.32 in WNW 4.0 mph 12.0 mph 87 % 0.00 in 0 W/m2
05:16 46.6 °F 42.9 °F 30.32 in WNW 5.0 mph 12.0 mph 87 % 0.00 in 0 W/m2
05:21 46.8 °F 42.8 °F 30.32 in WNW 5.0 mph 9.0 mph 86 % 0.00 in 0 W/m2
05:26 46.8 °F 42.8 °F 30.32 in WNW 4.0 mph 9.0 mph 86 % 0.00 in 0 W/m2
05:31 46.8 °F 42.8 °F 30.32 in WNW 4.0 mph 8.0 mph 86 % 0.00 in 0 W/m2
05:36 46.8 °F 42.8 °F 30.32 in WNW 4.0 mph 8.0 mph 86 % 0.00 in 0 W/m2
05:41 46.8 °F 42.8 °F 30.32 in WNW 4.0 mph 10.0 mph 86 % 0.00 in 0 W/m2
05:46 46.8 °F 42.8 °F 30.32 in WNW 5.0 mph 10.0 mph 86 % 0.00 in 0 W/m2
05:51 46.8 °F 42.8 °F 30.32 in WNW 4.0 mph 8.0 mph 86 % 0.00 in 0 W/m2
05:56 46.8 °F 42.8 °F 30.32 in WNW 4.0 mph 8.0 mph 86 % 0.00 in 0 W/m2
06:01 46.8 °F 42.8 °F 30.32 in WNW 3.0 mph 7.0 mph 86 % 0.00 in 0 W/m2
06:06 46.8 °F 42.8 °F 30.32 in WNW 3.0 mph 9.0 mph 86 % 0.00 in 0 W/m2
06:11 46.8 °F 42.8 °F 30.32 in WNW 4.0 mph 9.0 mph 86 % 0.00 in 0 W/m2
06:16 46.8 °F 42.8 °F 30.32 in WNW 3.0 mph 6.0 mph 86 % 0.00 in 0 W/m2
06:21 46.8 °F 42.8 °F 30.32 in WNW 3.0 mph 6.0 mph 86 % 0.00 in 0 W/m2
06:26 46.8 °F 42.8 °F 30.32 in WNW 3.0 mph 7.0 mph 86 % 0.00 in 0 W/m2
06:31 46.8 °F 42.8 °F 30.32 in WNW 3.0 mph 7.0 mph 86 % 0.00 in 0 W/m2
06:36 46.8 °F 42.8 °F 30.32 in WNW 3.0 mph 6.0 mph 86 % 0.00 in 5 W/m2
06:41 46.8 °F 42.8 °F 30.32 in WNW 2.0 mph 7.0 mph 86 % 0.00 in 7 W/m2
06:46 46.8 °F 42.8 °F 30.32 in WNW 2.0 mph 7.0 mph 86 % 0.00 in 9 W/m2
06:51 46.8 °F 42.8 °F 30.32 in WNW 2.0 mph 6.0 mph 86 % 0.00 in 11 W/m2
06:56 46.8 °F 42.8 °F 30.32 in NW 2.0 mph 8.0 mph 86 % 0.00 in 12 W/m2
07:01 46.8 °F 42.5 °F 30.32 in WNW 3.0 mph 8.0 mph 85 % 0.00 in 12 W/m2
07:07 46.9 °F 42.7 °F 30.32 in WNW 3.0 mph 7.0 mph 85 % 0.00 in 16 W/m2
07:12 46.9 °F 42.4 °F 30.33 in NW 3.0 mph 7.0 mph 84 % 0.00 in 19 W/m2
07:17 46.9 °F 42.4 °F 30.33 in NW 3.0 mph 8.0 mph 84 % 0.00 in 23 W/m2
07:22 47.1 °F 42.5 °F 30.33 in NW 4.0 mph 8.0 mph 84 % 0.00 in 23 W/m2
07:27 47.1 °F 42.5 °F 30.32 in WNW 3.0 mph 6.0 mph 84 % 0.00 in 28 W/m2
07:32 47.1 °F 42.2 °F 30.33 in WNW 3.0 mph 9.0 mph 83 % 0.00 in 32 W/m2
07:37 47.3 °F 42.4 °F 30.33 in NW 4.0 mph 9.0 mph 83 % 0.00 in 42 W/m2
07:42 47.3 °F 42.1 °F 30.33 in NW 4.0 mph 9.0 mph 82 % 0.00 in 32 W/m2
07:47 47.5 °F 42.3 °F 30.33 in NW 4.0 mph 9.0 mph 82 % 0.00 in 32 W/m2
07:52 47.5 °F 41.9 °F 30.33 in NW 4.0 mph 11.0 mph 81 % 0.00 in 35 W/m2
07:57 47.5 °F 41.6 °F 30.33 in NW 5.0 mph 11.0 mph 80 % 0.00 in 42 W/m2
08:02 47.5 °F 41.6 °F 30.33 in NW 4.0 mph 9.0 mph 80 % 0.00 in 54 W/m2
08:07 47.7 °F 41.8 °F 30.33 in NW 4.0 mph 9.0 mph 80 % 0.00 in 49 W/m2
08:12 47.7 °F 41.8 °F 30.33 in NW 5.0 mph 11.0 mph 80 % 0.00 in 51 W/m2
08:17 47.7 °F 41.5 °F 30.33 in NW 6.0 mph 11.0 mph 79 % 0.00 in 56 W/m2
08:22 47.8 °F 41.3 °F 30.33 in NW 6.0 mph 12.0 mph 78 % 0.00 in 79 W/m2
08:27 47.8 °F 41.3 °F 30.33 in NW 6.0 mph 12.0 mph 78 % 0.00 in 67 W/m2
08:32 47.8 °F 41.3 °F 30.33 in NW 5.0 mph 11.0 mph 78 % 0.00 in 63 W/m2
08:37 48.0 °F 41.5 °F 30.33 in NW 3.0 mph 8.0 mph 78 % 0.00 in 63 W/m2
08:42 48.0 °F 41.5 °F 30.33 in WNW 3.0 mph 7.0 mph 78 % 0.00 in 65 W/m2
08:47 48.2 °F 41.7 °F 30.33 in WNW 3.0 mph 8.0 mph 78 % 0.00 in 69 W/m2
08:52 48.4 °F 41.8 °F 30.33 in WNW 3.0 mph 8.0 mph 78 % 0.00 in 69 W/m2
08:57 48.4 °F 41.8 °F 30.33 in WNW 3.0 mph 8.0 mph 78 % 0.00 in 77 W/m2
09:02 48.4 °F 41.5 °F 30.33 in WNW 4.0 mph 9.0 mph 77 % 0.00 in 81 W/m2
09:07 48.4 °F 41.5 °F 30.33 in WNW 5.0 mph 10.0 mph 77 % 0.00 in 81 W/m2
09:12 48.4 °F 41.5 °F 30.33 in WNW 6.0 mph 13.0 mph 77 % 0.00 in 88 W/m2
09:17 48.4 °F 41.2 °F 30.33 in WNW 7.0 mph 13.0 mph 76 % 0.00 in 95 W/m2
09:22 48.4 °F 41.2 °F 30.33 in WNW 7.0 mph 12.0 mph 76 % 0.00 in 97 W/m2
09:27 48.4 °F 41.2 °F 30.33 in WNW 7.0 mph 12.0 mph 76 % 0.00 in 121 W/m2
09:32 48.4 °F 40.8 °F 30.33 in WNW 6.0 mph 12.0 mph 75 % 0.00 in 116 W/m2
09:37 48.4 °F 40.8 °F 30.33 in NW 7.0 mph 13.0 mph 75 % 0.00 in 116 W/m2
09:42 48.6 °F 41.0 °F 30.33 in NW 6.0 mph 13.0 mph 75 % 0.00 in 111 W/m2
09:47 48.6 °F 40.6 °F 30.33 in NW 6.0 mph 12.0 mph 74 % 0.00 in 116 W/m2
09:52 48.6 °F 40.6 °F 30.33 in NW 6.0 mph 12.0 mph 74 % 0.00 in 107 W/m2
09:57 48.6 °F 41.0 °F 30.33 in NW 5.0 mph 10.0 mph 75 % 0.00 in 100 W/m2
10:02 48.7 °F 41.2 °F 30.33 in NW 5.0 mph 11.0 mph 75 % 0.00 in 98 W/m2
10:03 48.7 °F 41.2 °F 30.33 in NW 5.0 mph 11.0 mph 75 % 0.00 in 100 W/m2
10:08 48.7 °F 41.2 °F 30.34 in NW 5.0 mph 11.0 mph 75 % 0.00 in 105 W/m2
10:13 48.7 °F 41.2 °F 30.34 in NW 5.0 mph 10.0 mph 75 % 0.00 in 102 W/m2
10:18 48.9 °F 41.3 °F 30.34 in WNW 5.0 mph 11.0 mph 75 % 0.00 in 105 W/m2
10:23 48.9 °F 41.0 °F 30.34 in WNW 5.0 mph 11.0 mph 74 % 0.00 in 113 W/m2
10:28 48.9 °F 41.0 °F 30.34 in NW 6.0 mph 10.0 mph 74 % 0.00 in 128 W/m2
10:33 48.9 °F 40.6 °F 30.34 in NW 6.0 mph 10.0 mph 73 % 0.00 in 127 W/m2
10:38 48.9 °F 40.6 °F 30.34 in NW 6.0 mph 10.0 mph 73 % 0.00 in 134 W/m2
10:43 48.9 °F 40.6 °F 30.34 in NW 5.0 mph 9.0 mph 73 % 0.00 in 134 W/m2
10:48 48.9 °F 40.6 °F 30.34 in NW 5.0 mph 11.0 mph 73 % 0.00 in 141 W/m2
10:53 49.1 °F 40.1 °F 30.34 in NW 6.0 mph 14.0 mph 71 % 0.00 in 151 W/m2
10:58 49.1 °F 40.5 °F 30.34 in NW 6.0 mph 14.0 mph 72 % 0.00 in 163 W/m2
11:03 49.3 °F 40.6 °F 30.34 in NW 6.0 mph 11.0 mph 72 % 0.00 in 165 W/m2
11:08 49.3 °F 40.6 °F 30.34 in NW 5.0 mph 11.0 mph 72 % 0.00 in 169 W/m2
11:13 49.5 °F 40.8 °F 30.34 in WNW 5.0 mph 10.0 mph 72 % 0.00 in 165 W/m2
11:18 49.6 °F 40.6 °F 30.34 in NW 5.0 mph 11.0 mph 71 % 0.00 in 155 W/m2
11:23 49.6 °F 40.6 °F 30.34 in NW 4.0 mph 11.0 mph 71 % 0.00 in 163 W/m2
11:28 49.8 °F 40.8 °F 30.34 in WNW 4.0 mph 8.0 mph 71 % 0.00 in 165 W/m2
11:33 49.8 °F 40.8 °F 30.34 in West 6.0 mph 12.0 mph 71 % 0.00 in 179 W/m2
11:38 49.6 °F 40.3 °F 30.34 in West 7.0 mph 12.0 mph 70 % 0.00 in 174 W/m2
11:43 49.6 °F 40.6 °F 30.34 in West 7.0 mph 11.0 mph 71 % 0.00 in 204 W/m2
11:48 49.8 °F 40.4 °F 30.34 in WNW 7.0 mph 11.0 mph 70 % 0.00 in 185 W/m2
11:53 49.8 °F 40.4 °F 30.34 in WNW 6.0 mph 11.0 mph 70 % 0.00 in 186 W/m2
11:58 50.0 °F 41.0 °F 30.34 in WNW 5.0 mph 11.0 mph 71 % 0.00 in 176 W/m2
12:04 50.2 °F 41.1 °F 30.34 in WNW 5.0 mph 11.0 mph 71 % 0.00 in 199 W/m2
12:09 50.4 °F 40.9 °F 30.34 in WNW 5.0 mph 12.0 mph 70 % 0.00 in 192 W/m2
12:14 50.4 °F 40.9 °F 30.33 in WNW 7.0 mph 12.0 mph 70 % 0.00 in 202 W/m2
12:19 50.4 °F 40.9 °F 30.34 in WNW 7.0 mph 12.0 mph 70 % 0.00 in 213 W/m2
12:24 50.4 °F 40.9 °F 30.33 in WNW 7.0 mph 12.0 mph 70 % 0.00 in 230 W/m2
12:29 50.5 °F 40.7 °F 30.33 in WNW 7.0 mph 12.0 mph 69 % 0.00 in 229 W/m2
12:34 50.5 °F 40.7 °F 30.33 in NW 7.0 mph 14.0 mph 69 % 0.00 in 257 W/m2
12:39 50.5 °F 40.4 °F 30.33 in WNW 7.0 mph 14.0 mph 68 % 0.00 in 243 W/m2
12:44 50.7 °F 40.9 °F 30.33 in WNW 7.0 mph 13.0 mph 69 % 0.00 in 221 W/m2
12:49 50.7 °F 40.5 °F 30.33 in WNW 7.0 mph 13.0 mph 68 % 0.00 in 207 W/m2
12:54 50.7 °F 40.9 °F 30.33 in WNW 7.0 mph 12.0 mph 69 % 0.00 in 204 W/m2
12:59 50.7 °F 40.5 °F 30.33 in WNW 7.0 mph 11.0 mph 68 % 0.00 in 241 W/m2
13:04 50.7 °F 40.5 °F 30.33 in WNW 7.0 mph 11.0 mph 68 % 0.00 in 265 W/m2
13:09 51.1 °F 40.5 °F 30.33 in WNW 6.0 mph 11.0 mph 67 % 0.00 in 262 W/m2
13:14 51.1 °F 40.5 °F 30.33 in WNW 6.0 mph 11.0 mph 67 % 0.00 in 230 W/m2
13:19 51.3 °F 40.7 °F 30.32 in NW 6.0 mph 14.0 mph 67 % 0.00 in 272 W/m2
13:24 51.3 °F 40.7 °F 30.32 in NW 7.0 mph 14.0 mph 67 % 0.00 in 279 W/m2
13:29 51.3 °F 40.7 °F 30.32 in NW 6.0 mph 11.0 mph 67 % 0.00 in 294 W/m2
13:34 51.4 °F 40.8 °F 30.32 in NW 4.0 mph 10.0 mph 67 % 0.00 in 299 W/m2
13:40 51.8 °F 41.2 °F 30.32 in NW 4.0 mph 9.0 mph 67 % 0.00 in 316 W/m2
13:45 52.0 °F 41.0 °F 30.32 in NW 6.0 mph 12.0 mph 66 % 0.00 in 329 W/m2
13:50 52.2 °F 40.7 °F 30.32 in WNW 7.0 mph 12.0 mph 65 % 0.00 in 308 W/m2
13:55 52.3 °F 40.5 °F 30.32 in WNW 7.0 mph 11.0 mph 64 % 0.00 in 357 W/m2
14:00 52.3 °F 40.1 °F 30.32 in WNW 7.0 mph 12.0 mph 63 % 0.00 in 346 W/m2
14:05 52.3 °F 40.5 °F 30.32 in WNW 7.0 mph 12.0 mph 64 % 0.00 in 355 W/m2
14:10 52.7 °F 41.3 °F 30.31 in NW 6.0 mph 12.0 mph 65 % 0.00 in 466 W/m2
14:15 53.1 °F 41.2 °F 30.31 in WNW 6.0 mph 12.0 mph 64 % 0.00 in 540 W/m2
14:20 54.0 °F 41.6 °F 30.31 in West 7.0 mph 20.0 mph 63 % 0.00 in 1011 W/m2
14:25 54.9 °F 41.7 °F 30.31 in West 8.0 mph 20.0 mph 61 % 0.00 in 895 W/m2
14:30 55.2 °F 41.6 °F 30.31 in West 7.0 mph 13.0 mph 60 % 0.00 in 826 W/m2
14:35 55.4 °F 41.7 °F 30.31 in WSW 7.0 mph 13.0 mph 60 % 0.00 in 981 W/m2
14:40 55.8 °F 42.1 °F 30.31 in WSW 7.0 mph 13.0 mph 60 % 0.00 in 875 W/m2
14:46 56.1 °F 42.0 °F 30.31 in West 7.0 mph 13.0 mph 59 % 0.00 in 851 W/m2
14:51 56.5 °F 42.3 °F 30.31 in West 7.0 mph 11.0 mph 59 % 0.00 in 939 W/m2
14:56 57.0 °F 42.4 °F 30.30 in West 7.0 mph 11.0 mph 58 % 0.00 in 846 W/m2
15:01 57.0 °F 41.9 °F 30.30 in West 8.0 mph 13.0 mph 57 % 0.00 in 889 W/m2
15:04 57.0 °F 41.9 °F 30.30 in West 8.0 mph 13.0 mph 57 % 0.00 in 350 W/m2
15:09 57.0 °F 41.9 °F 30.30 in WNW 6.0 mph 11.0 mph 57 % 0.00 in 341 W/m2
15:14 57.0 °F 42.4 °F 30.30 in NNW 5.0 mph 13.0 mph 58 % 0.00 in 492 W/m2
15:19 56.8 °F 42.2 °F 30.29 in NNW 6.0 mph 13.0 mph 58 % 0.00 in 788 W/m2
15:24 56.7 °F 42.0 °F 30.29 in NW 4.0 mph 12.0 mph 58 % 0.00 in 802 W/m2
15:29 57.0 °F 41.9 °F 30.29 in NW 5.0 mph 12.0 mph 57 % 0.00 in 773 W/m2
15:34 57.4 °F 42.7 °F 30.29 in WNW 6.0 mph 12.0 mph 58 % 0.00 in 724 W/m2
15:39 57.7 °F 42.6 °F 30.29 in WNW 6.0 mph 12.0 mph 57 % 0.00 in 677 W/m2
15:44 57.7 °F 41.7 °F 30.29 in West 6.0 mph 12.0 mph 55 % 0.00 in 679 W/m2
15:49 57.4 °F 41.8 °F 30.28 in WSW 7.0 mph 12.0 mph 56 % 0.00 in 617 W/m2
15:54 57.0 °F 41.5 °F 30.28 in WSW 7.0 mph 12.0 mph 56 % 0.00 in 654 W/m2
15:59 57.4 °F 42.3 °F 30.28 in West 6.0 mph 12.0 mph 57 % 0.00 in 636 W/m2
16:04 57.7 °F 42.1 °F 30.28 in NW 6.0 mph 12.0 mph 56 % 0.00 in 603 W/m2
16:09 57.7 °F 42.6 °F 30.28 in NW 6.0 mph 11.0 mph 57 % 0.00 in 577 W/m2
16:14 57.6 °F 42.4 °F 30.28 in NW 7.0 mph 12.0 mph 57 % 0.00 in 571 W/m2
16:19 57.7 °F 42.1 °F 30.28 in NW 7.0 mph 12.0 mph 56 % 0.00 in 499 W/m2
16:24 57.7 °F 41.7 °F 30.27 in WNW 7.0 mph 12.0 mph 55 % 0.00 in 496 W/m2
16:29 57.4 °F 41.8 °F 30.28 in WNW 6.0 mph 11.0 mph 56 % 0.00 in 485 W/m2
16:34 57.4 °F 41.8 °F 30.27 in WNW 4.0 mph 11.0 mph 56 % 0.00 in 480 W/m2
16:39 57.2 °F 42.1 °F 30.27 in NW 3.0 mph 10.0 mph 57 % 0.00 in 448 W/m2
16:44 57.2 °F 42.1 °F 30.27 in NW 5.0 mph 10.0 mph 57 % 0.00 in 443 W/m2
16:45 57.2 °F 42.1 °F 30.27 in NNW 5.0 mph 10.0 mph 57 % 0.00 in 441 W/m2
16:50 57.4 °F 42.3 °F 30.27 in NNW 4.0 mph 10.0 mph 57 % 0.00 in 425 W/m2
16:55 57.4 °F 41.8 °F 30.27 in WNW 4.0 mph 11.0 mph 56 % 0.00 in 415 W/m2
17:00 57.6 °F 42.0 °F 30.27 in WNW 6.0 mph 11.0 mph 56 % 0.00 in 404 W/m2
17:05 57.7 °F 42.1 °F 30.26 in NW 5.0 mph 12.0 mph 56 % 0.00 in 388 W/m2
17:10 57.7 °F 42.1 °F 30.26 in WNW 5.0 mph 12.0 mph 56 % 0.00 in 373 W/m2
17:15 57.7 °F 42.1 °F 30.26 in WNW 6.0 mph 11.0 mph 56 % 0.00 in 357 W/m2
17:20 57.6 °F 42.0 °F 30.26 in NW 6.0 mph 11.0 mph 56 % 0.00 in 343 W/m2
17:25 57.6 °F 42.0 °F 30.26 in WNW 5.0 mph 10.0 mph 56 % 0.00 in 330 W/m2
17:30 57.7 °F 41.7 °F 30.27 in WNW 5.0 mph 11.0 mph 55 % 0.00 in 315 W/m2
17:35 57.7 °F 41.7 °F 30.26 in WNW 6.0 mph 11.0 mph 55 % 0.00 in 297 W/m2
17:40 57.6 °F 42.0 °F 30.26 in WNW 5.0 mph 11.0 mph 56 % 0.00 in 288 W/m2
17:45 57.4 °F 41.3 °F 30.26 in WNW 5.0 mph 10.0 mph 55 % 0.00 in 272 W/m2
17:50 57.2 °F 41.2 °F 30.26 in WNW 5.0 mph 10.0 mph 55 % 0.00 in 260 W/m2
17:55 57.0 °F 41.9 °F 30.26 in WNW 4.0 mph 8.0 mph 57 % 0.00 in 244 W/m2
18:00 57.0 °F 41.9 °F 30.26 in NW 3.0 mph 8.0 mph 57 % 0.00 in 232 W/m2
18:05 56.8 °F 41.8 °F 30.27 in NNW 3.0 mph 9.0 mph 57 % 0.00 in 218 W/m2
18:10 56.7 °F 42.0 °F 30.27 in NNW 3.0 mph 9.0 mph 58 % 0.00 in 204 W/m2
18:15 56.5 °F 42.3 °F 30.26 in NW 3.0 mph 7.0 mph 59 % 0.00 in 192 W/m2
18:20 56.7 °F 42.5 °F 30.26 in WNW 4.0 mph 10.0 mph 59 % 0.00 in 178 W/m2
18:25 56.5 °F 41.9 °F 30.26 in NW 5.0 mph 10.0 mph 58 % 0.00 in 163 W/m2
18:30 56.1 °F 42.0 °F 30.26 in NNW 5.0 mph 9.0 mph 59 % 0.00 in 151 W/m2
18:35 55.9 °F 41.4 °F 30.26 in NNW 5.0 mph 9.0 mph 58 % 0.00 in 139 W/m2
18:40 55.8 °F 41.6 °F 30.26 in NNW 5.0 mph 9.0 mph 59 % 0.00 in 127 W/m2
18:45 55.4 °F 41.3 °F 30.27 in NNW 5.0 mph 9.0 mph 59 % 0.00 in 109 W/m2
18:50 55.0 °F 41.4 °F 30.27 in NW 5.0 mph 9.0 mph 60 % 0.00 in 95 W/m2
18:55 54.9 °F 41.7 °F 30.26 in NW 5.0 mph 8.0 mph 61 % 0.00 in 84 W/m2
19:00 54.3 °F 41.1 °F 30.26 in NNW 4.0 mph 8.0 mph 61 % 0.00 in 72 W/m2
19:05 54.0 °F 41.2 °F 30.27 in NNW 4.0 mph 8.0 mph 62 % 0.00 in 60 W/m2
19:10 53.4 °F 41.1 °F 30.27 in NNW 4.0 mph 8.0 mph 63 % 0.00 in 49 W/m2
19:15 53.1 °F 40.8 °F 30.27 in NNW 3.0 mph 8.0 mph 63 % 0.00 in 40 W/m2
19:20 52.5 °F 40.7 °F 30.27 in NNW 3.0 mph 8.0 mph 64 % 0.00 in 33 W/m2
19:25 52.2 °F 40.7 °F 30.27 in NNW 4.0 mph 8.0 mph 65 % 0.00 in 25 W/m2
19:31 51.8 °F 40.8 °F 30.27 in NNW 4.0 mph 7.0 mph 66 % 0.00 in 19 W/m2
19:36 51.4 °F 40.5 °F 30.27 in NNW 3.0 mph 7.0 mph 66 % 0.00 in 14 W/m2
19:41 51.3 °F 40.7 °F 30.27 in NNW 3.0 mph 6.0 mph 67 % 0.00 in 11 W/m2
19:46 50.7 °F 40.5 °F 30.27 in NNW 3.0 mph 8.0 mph 68 % 0.00 in 9 W/m2
19:51 50.5 °F 40.4 °F 30.27 in NNW 3.0 mph 8.0 mph 68 % 0.00 in 7 W/m2
19:56 50.2 °F 40.4 °F 30.27 in NNW 3.0 mph 6.0 mph 69 % 0.00 in 5 W/m2
20:01 49.8 °F 40.1 °F 30.27 in NW 3.0 mph 6.0 mph 69 % 0.00 in 0 W/m2
20:02 49.8 °F 40.1 °F 30.27 in NW 2.0 mph 6.0 mph 69 % 0.00 in 0 W/m2
20:07 49.5 °F 40.1 °F 30.27 in NNW 1.0 mph 5.0 mph 70 % 0.00 in 0 W/m2
20:12 49.3 °F 39.9 °F 30.28 in NNW 1.0 mph 4.0 mph 70 % 0.00 in 0 W/m2
20:17 48.9 °F 39.9 °F 30.28 in Calm   2.0 mph 71 % 0.00 in 0 W/m2
20:22 48.7 °F 39.8 °F 30.28 in Calm   1.0 mph 71 % 0.00 in 0 W/m2
20:27 48.4 °F 39.8 °F 30.28 in Calm     72 % 0.00 in 0 W/m2
20:32 48.0 °F 39.4 °F 30.28 in Calm     72 % 0.00 in 0 W/m2
20:38 47.8 °F 39.6 °F 30.28 in NNW 1.0 mph 1.0 mph 73 % 0.00 in 0 W/m2
20:43 47.3 °F 39.4 °F 30.28 in NW 1.0 mph 2.0 mph 74 % 0.00 in 0 W/m2
20:48 46.9 °F 39.1 °F 30.28 in Calm   2.0 mph 74 % 0.00 in 0 W/m2
20:55 46.6 °F 39.1 °F 30.28 in Calm   1.0 mph 75 % 0.00 in 0 W/m2
21:00 46.0 °F 39.2 °F 30.28 in Calm   1.0 mph 77 % 0.00 in 0 W/m2
21:05 45.7 °F 38.9 °F 30.28 in Calm     77 % 0.00 in 0 W/m2
21:10 45.3 °F 38.9 °F 30.28 in Calm     78 % 0.00 in 0 W/m2
21:15 45.0 °F 38.8 °F 30.28 in Calm     79 % 0.00 in 0 W/m2
21:20 44.6 °F 38.5 °F 30.28 in Calm     79 % 0.00 in 0 W/m2
21:25 44.2 °F 38.5 °F 30.28 in Calm     80 % 0.00 in 0 W/m2
21:30 43.9 °F 38.1 °F 30.28 in Calm     80 % 0.00 in 0 W/m2
21:35 43.5 °F 38.1 °F 30.28 in Calm     81 % 0.00 in 0 W/m2
21:40 43.2 °F 38.0 °F 30.28 in Calm     82 % 0.00 in 0 W/m2
21:45 43.2 °F 38.3 °F 30.28 in Calm     83 % 0.00 in 0 W/m2
21:50 43.2 °F 38.3 °F 30.28 in Calm     83 % 0.00 in 0 W/m2
21:55 43.0 °F 38.5 °F 30.28 in Calm     84 % 0.00 in 0 W/m2
22:00 43.0 °F 38.5 °F 30.29 in Calm     84 % 0.00 in 0 W/m2
22:05 42.6 °F 37.8 °F 30.29 in Calm     83 % 0.00 in 0 W/m2
22:10 42.3 °F 37.5 °F 30.28 in Calm     83 % 0.00 in 0 W/m2
22:15 41.9 °F 37.1 °F 30.28 in Calm   2.0 mph 83 % 0.00 in 0 W/m2
22:20 41.5 °F 37.1 °F 30.28 in Calm   2.0 mph 84 % 0.00 in 0 W/m2
22:25 41.4 °F 37.2 °F 30.28 in Calm   2.0 mph 85 % 0.00 in 0 W/m2
22:30 41.2 °F 37.0 °F 30.29 in Calm   1.0 mph 85 % 0.00 in 0 W/m2
22:35 41.0 °F 37.1 °F 30.29 in Calm     86 % 0.00 in 0 W/m2
22:41 40.8 °F 37.0 °F 30.28 in Calm     86 % 0.00 in 0 W/m2
22:46 40.6 °F 36.8 °F 30.28 in Calm     86 % 0.00 in 0 W/m2
22:51 40.5 °F 36.6 °F 30.28 in Calm   1.0 mph 86 % 0.00 in 0 W/m2
22:56 40.3 °F 36.7 °F 30.28 in Calm   1.0 mph 87 % 0.00 in 0 W/m2
23:01 40.3 °F 36.7 °F 30.28 in Calm   1.0 mph 87 % 0.00 in 0 W/m2
23:06 39.9 °F 36.4 °F 30.28 in Calm   1.0 mph 87 % 0.00 in 0 W/m2
23:11 39.7 °F 36.2 °F 30.28 in Calm     87 % 0.00 in 0 W/m2
23:16 39.6 °F 36.0 °F 30.28 in Calm     87 % 0.00 in 0 W/m2
23:21 39.4 °F 35.8 °F 30.28 in Calm   1.0 mph 87 % 0.00 in 0 W/m2
23:26 39.2 °F 35.9 °F 30.28 in Calm   1.0 mph 88 % 0.00 in 0 W/m2
23:31 39.0 °F 35.8 °F 30.28 in Calm   1.0 mph 88 % 0.00 in 0 W/m2
23:36 38.8 °F 35.6 °F 30.28 in Calm   1.0 mph 88 % 0.00 in 0 W/m2
23:41 38.8 °F 35.6 °F 30.28 in Calm   1.0 mph 88 % 0.00 in 0 W/m2
23:46 38.7 °F 35.4 °F 30.28 in Calm     88 % 0.00 in 0 W/m2
23:51 38.5 °F 35.2 °F 30.28 in Calm     88 % 0.00 in 0 W/m2
23:56 38.1 °F 34.9 °F 30.28 in Calm     88 % 0.00 in 0 W/m2
Delerius-Weather
Compliments of Weather Underground - 2.25 mb

Data updates at regular intervals.